Time;durP1;ratioP1;P1;durP2;ratioP2;P2;SDS_P1;SDS_P2;PMS_P1;PMS_P2;Temp;Humidity;BMP_temperature;BMP_pressure;BME280_temperature;BME280_humidity;BME280_pressure;Samples;Min_cycle;Max_cycle;Signal;HPM_P1;HPM_P2
2022/09/01 00:01:41;;;;;;;;;;;21.80;52.40;;;;;;484979;245;1180;-74
2022/09/01 00:03:42;;;;;;;;;;;21.80;52.40;;;;;;484817;246;1390;-74
2022/09/01 00:05:43;;;;;;;;;;;21.90;52.30;;;;;;484826;246;1134;-74
2022/09/01 00:07:44;;;;;;;;;;;21.90;52.30;;;;;;484901;246;1097;-74
2022/09/01 00:09:45;;;;;;;;;;;21.90;52.30;;;;;;484866;246;1036;-74
2022/09/01 00:11:47;;;;;;;;;;;21.90;52.30;;;;;;484833;246;1177;-75
2022/09/01 00:13:48;;;;;;;;;;;21.90;52.30;;;;;;484868;246;1131;-75
2022/09/01 00:15:49;;;;;;;;;;;21.90;52.40;;;;;;484841;246;2183;-74
2022/09/01 00:17:51;;;;;;;;;;;21.90;52.30;;;;;;484813;244;1162;-74
2022/09/01 00:19:52;;;;;;;;;;;22.00;52.10;;;;;;484855;246;1223;-74
2022/09/01 00:21:53;;;;;;;;;;;22.00;52.10;;;;;;484899;246;1098;-74
2022/09/01 00:23:55;;;;;;;;;;;21.90;52.20;;;;;;484860;246;1180;-74
2022/09/01 00:25:56;;;;;;;;;;;21.90;52.30;;;;;;484902;246;1211;-75
2022/09/01 00:27:59;;;;;;;;;;;21.90;52.30;;;;;;484906;246;1171;-74
2022/09/01 00:29:59;;;;;;;;;;;21.90;52.10;;;;;;484744;246;1417;-74
2022/09/01 00:32:00;;;;;;;;;;;21.90;52.10;;;;;;484861;246;1092;-74
2022/09/01 00:34:01;;;;;;;;;;;22.00;52.10;;;;;;484911;246;1153;-74
2022/09/01 00:36:02;;;;;;;;;;;21.90;52.20;;;;;;484871;246;2160;-74
2022/09/01 00:38:04;;;;;;;;;;;21.80;52.40;;;;;;484838;246;1336;-74
2022/09/01 00:40:05;;;;;;;;;;;21.80;52.30;;;;;;484873;246;1264;-74
2022/09/01 00:42:07;;;;;;;;;;;21.80;52.30;;;;;;484853;246;1146;-74
2022/09/01 00:44:08;;;;;;;;;;;21.80;52.30;;;;;;484837;246;1191;-74
2022/09/01 00:46:09;;;;;;;;;;;21.80;52.50;;;;;;484872;246;1213;-74
2022/09/01 00:48:11;;;;;;;;;;;21.80;52.60;;;;;;484834;246;1207;-74
2022/09/01 00:50:12;;;;;;;;;;;21.80;52.60;;;;;;484830;246;1274;-74
2022/09/01 00:52:13;;;;;;;;;;;21.80;52.50;;;;;;484888;246;1146;-74
2022/09/01 00:54:15;;;;;;;;;;;21.80;52.60;;;;;;484917;246;1213;-74
2022/09/01 00:56:16;;;;;;;;;;;21.80;52.40;;;;;;484796;246;2187;-74
2022/09/01 00:58:17;;;;;;;;;;;21.80;52.50;;;;;;484844;246;1276;-74
2022/09/01 01:00:19;;;;;;;;;;;21.80;52.40;;;;;;484865;245;1130;-74
2022/09/01 01:02:21;;;;;;;;;;;21.80;52.50;;;;;;484893;246;1212;-75
2022/09/01 01:04:21;;;;;;;;;;;21.70;52.50;;;;;;484762;246;1641;-74
2022/09/01 01:06:26;;;;;;;;;;;21.70;52.70;;;;;;484825;246;1167;-74
2022/09/01 01:08:29;;;;;;;;;;;21.70;52.70;;;;;;484569;246;1461;-74
2022/09/01 01:10:28;;;;;;;;;;;21.60;52.80;;;;;;484728;246;1409;-74
2022/09/01 01:12:30;;;;;;;;;;;21.60;52.80;;;;;;484874;246;1249;-74
2022/09/01 01:14:31;;;;;;;;;;;21.70;52.90;;;;;;484910;246;1195;-74
2022/09/01 01:16:33;;;;;;;;;;;21.60;52.80;;;;;;484874;246;2156;-74
2022/09/01 01:18:34;;;;;;;;;;;21.70;53.00;;;;;;484824;246;1660;-74
2022/09/01 01:23:04;;;;;;;;;;;21.70;52.70;;;;;;484459;245;1116;-74
2022/09/01 01:25:06;;;;;;;;;;;21.70;52.60;;;;;;484348;246;1070;-74
2022/09/01 01:27:08;;;;;;;;;;;21.60;52.80;;;;;;484383;246;1194;-74
2022/09/01 01:29:09;;;;;;;;;;;21.60;52.90;;;;;;484878;246;1076;-74
2022/09/01 01:31:11;;;;;;;;;;;21.70;52.90;;;;;;484845;246;1115;-74
2022/09/01 01:33:12;;;;;;;;;;;21.60;52.90;;;;;;484799;245;1130;-74
2022/09/01 01:35:14;;;;;;;;;;;21.60;52.80;;;;;;484843;246;2203;-74
2022/09/01 01:37:15;;;;;;;;;;;21.60;52.80;;;;;;484847;246;1497;-74
2022/09/01 01:39:16;;;;;;;;;;;21.60;52.80;;;;;;484897;245;1110;-74
2022/09/01 01:41:18;;;;;;;;;;;21.60;52.80;;;;;;484839;246;1105;-74
2022/09/01 01:43:20;;;;;;;;;;;21.60;52.80;;;;;;484859;246;1224;-74
2022/09/01 01:45:21;;;;;;;;;;;21.60;52.90;;;;;;484938;245;1577;-74
2022/09/01 01:47:22;;;;;;;;;;;21.60;52.90;;;;;;484874;246;1094;-74
2022/09/01 01:49:23;;;;;;;;;;;21.50;52.90;;;;;;484865;246;1098;-74
2022/09/01 01:51:27;;;;;;;;;;;21.50;53.10;;;;;;484880;246;1148;-74
2022/09/01 01:53:26;;;;;;;;;;;21.50;53.00;;;;;;484739;246;1450;-74
2022/09/01 01:55:30;;;;;;;;;;;21.60;53.00;;;;;;484858;246;2195;-74
2022/09/01 01:57:31;;;;;;;;;;;21.50;53.00;;;;;;484734;246;1342;-74
2022/09/01 01:59:32;;;;;;;;;;;21.60;52.90;;;;;;484730;246;1403;-74
2022/09/01 02:01:32;;;;;;;;;;;21.60;52.80;;;;;;484894;245;1419;-74
2022/09/01 02:03:37;;;;;;;;;;;21.60;52.90;;;;;;484822;246;1268;-74
2022/09/01 02:05:35;;;;;;;;;;;21.50;52.80;;;;;;484597;246;1370;-74
2022/09/01 02:07:41;;;;;;;;;;;21.50;52.90;;;;;;484951;246;1171;-74
2022/09/01 02:09:39;;;;;;;;;;;21.50;53.00;;;;;;484620;246;1453;-74
2022/09/01 02:11:39;;;;;;;;;;;21.50;53.10;;;;;;484769;246;1417;-74
2022/09/01 02:13:41;;;;;;;;;;;21.50;53.00;;;;;;484900;246;1219;-74
2022/09/01 02:15:43;;;;;;;;;;;21.50;52.80;;;;;;484885;246;2153;-74
2022/09/01 02:17:44;;;;;;;;;;;21.50;52.80;;;;;;484814;245;1449;-75
2022/09/01 02:19:46;;;;;;;;;;;21.60;52.70;;;;;;484844;246;1467;-74
2022/09/01 02:21:47;;;;;;;;;;;21.50;52.80;;;;;;484767;246;1408;-74
2022/09/01 02:23:48;;;;;;;;;;;21.40;53.00;;;;;;484811;245;1586;-74
2022/09/01 02:25:49;;;;;;;;;;;21.40;53.00;;;;;;484853;245;1172;-74
2022/09/01 02:27:54;;;;;;;;;;;21.40;53.00;;;;;;484798;246;1209;-74
2022/09/01 02:29:54;;;;;;;;;;;21.40;53.00;;;;;;484572;245;1446;-74
2022/09/01 02:31:53;;;;;;;;;;;21.30;53.10;;;;;;484741;246;1369;-74
2022/09/01 02:33:54;;;;;;;;;;;21.40;53.10;;;;;;484774;246;1150;-74
2022/09/01 02:35:56;;;;;;;;;;;21.40;53.10;;;;;;484855;246;2190;-74
2022/09/01 02:37:59;;;;;;;;;;;21.30;53.20;;;;;;484845;246;1153;-74
2022/09/01 02:39:59;;;;;;;;;;;21.30;53.20;;;;;;484665;246;1445;-74
2022/09/01 02:42:00;;;;;;;;;;;21.30;53.20;;;;;;484815;246;1332;-74
2022/09/01 02:44:02;;;;;;;;;;;21.40;53.10;;;;;;484883;246;1108;-74
2022/09/01 02:46:05;;;;;;;;;;;21.30;53.10;;;;;;484740;246;1497;-74
2022/09/01 02:48:09;;;;;;;;;;;21.20;53.40;;;;;;484778;246;1394;-74
2022/09/01 02:50:12;;;;;;;;;;;21.10;53.60;;;;;;484593;246;1429;-75
2022/09/01 02:52:09;;;;;;;;;;;21.20;53.60;;;;;;484588;245;1437;-74
2022/09/01 02:54:09;;;;;;;;;;;21.10;53.70;;;;;;485027;245;1481;-74
2022/09/01 02:56:13;;;;;;;;;;;21.10;53.80;;;;;;485053;246;2198;-74
2022/09/01 02:58:15;;;;;;;;;;;21.10;53.70;;;;;;484849;246;1419;-74
2022/09/01 03:00:21;;;;;;;;;;;21.10;53.70;;;;;;484778;246;1464;-74
2022/09/01 03:02:21;;;;;;;;;;;21.10;53.70;;;;;;484726;246;1441;-74
2022/09/01 03:04:22;;;;;;;;;;;21.10;53.50;;;;;;484892;246;1167;-74
2022/09/01 03:06:24;;;;;;;;;;;21.00;53.90;;;;;;484990;246;1035;-74
2022/09/01 03:08:26;;;;;;;;;;;21.10;53.70;;;;;;484897;246;1102;-74
2022/09/01 03:10:30;;;;;;;;;;;21.10;53.60;;;;;;484838;246;1505;-74
2022/09/01 03:12:28;;;;;;;;;;;21.20;53.50;;;;;;484821;246;1426;-74
2022/09/01 03:14:30;;;;;;;;;;;21.20;53.40;;;;;;484909;246;1201;-74
2022/09/01 03:16:30;;;;;;;;;;;21.10;53.40;;;;;;484860;245;2203;-74
2022/09/01 03:18:32;;;;;;;;;;;21.20;53.50;;;;;;484918;246;1181;-74
2022/09/01 03:20:33;;;;;;;;;;;21.20;53.10;;;;;;484932;246;1209;-74
2022/09/01 03:22:34;;;;;;;;;;;21.30;53.10;;;;;;484990;246;1192;-74
2022/09/01 03:24:37;;;;;;;;;;;21.20;53.30;;;;;;484901;246;1200;-74
2022/09/01 03:26:37;;;;;;;;;;;21.30;53.10;;;;;;484825;246;1427;-74
2022/09/01 03:28:39;;;;;;;;;;;21.30;53.10;;;;;;485082;246;1078;-74
2022/09/01 03:30:40;;;;;;;;;;;21.30;53.00;;;;;;484926;246;1168;-74
2022/09/01 03:32:41;;;;;;;;;;;21.40;53.10;;;;;;485153;246;1145;-74
2022/09/01 03:34:42;;;;;;;;;;;21.30;53.10;;;;;;484964;246;1075;-74
2022/09/01 03:36:48;;;;;;;;;;;21.40;53.00;;;;;;484924;246;2172;-75
2022/09/01 03:38:47;;;;;;;;;;;21.40;52.80;;;;;;484569;246;1452;-74
2022/09/01 03:40:48;;;;;;;;;;;21.50;52.60;;;;;;484860;246;1516;-74
2022/09/01 03:42:51;;;;;;;;;;;21.50;52.60;;;;;;484961;246;1200;-74
2022/09/01 03:44:50;;;;;;;;;;;21.50;52.60;;;;;;484878;246;1422;-74
2022/09/01 03:46:51;;;;;;;;;;;21.40;52.60;;;;;;484981;246;1221;-74
2022/09/01 03:48:53;;;;;;;;;;;21.50;52.60;;;;;;485102;246;1095;-74
2022/09/01 03:50:54;;;;;;;;;;;21.50;52.60;;;;;;484911;246;1255;-74
2022/09/01 03:52:57;;;;;;;;;;;21.50;52.40;;;;;;484986;246;1129;-74
2022/09/01 03:54:58;;;;;;;;;;;21.60;52.40;;;;;;484804;246;1517;-74
2022/09/01 03:56:58;;;;;;;;;;;21.50;52.30;;;;;;484828;245;2158;-74
2022/09/01 03:58:59;;;;;;;;;;;21.40;52.70;;;;;;484939;245;1072;-74
2022/09/01 04:01:01;;;;;;;;;;;21.30;53.00;;;;;;484915;245;1183;-74
2022/09/01 04:03:03;;;;;;;;;;;21.40;52.70;;;;;;484970;246;1128;-74
2022/09/01 04:05:04;;;;;;;;;;;21.50;52.40;;;;;;484915;246;1319;-74
2022/09/01 04:07:06;;;;;;;;;;;21.60;52.30;;;;;;485045;246;1216;-74
2022/09/01 04:09:06;;;;;;;;;;;21.60;52.20;;;;;;484912;245;1585;-74
2022/09/01 04:11:08;;;;;;;;;;;21.70;52.10;;;;;;484941;246;1169;-74
2022/09/01 04:13:11;;;;;;;;;;;21.60;52.00;;;;;;485031;246;1258;-74
2022/09/01 04:15:11;;;;;;;;;;;21.60;52.20;;;;;;484819;245;1559;-74
2022/09/01 04:19:31;;;;;;;;;;;21.60;52.20;;;;;;484930;245;1159;-74
2022/09/01 04:21:32;;;;;;;;;;;21.60;52.20;;;;;;484983;245;1159;-74
2022/09/01 04:23:34;;;;;;;;;;;21.50;52.20;;;;;;484933;246;1015;-74
2022/09/01 04:25:37;;;;;;;;;;;21.60;52.20;;;;;;484822;246;1109;-74
2022/09/01 04:27:39;;;;;;;;;;;21.50;52.30;;;;;;484868;246;1511;-74
2022/09/01 04:29:38;;;;;;;;;;;21.50;52.20;;;;;;484746;246;1470;-74
2022/09/01 04:31:40;;;;;;;;;;;21.40;52.60;;;;;;485002;245;1143;-74
2022/09/01 04:33:43;;;;;;;;;;;21.30;52.70;;;;;;484936;246;1053;-74
2022/09/01 04:35:42;;;;;;;;;;;21.40;52.70;;;;;;484675;246;1424;-74
2022/09/01 04:37:46;;;;;;;;;;;21.30;52.70;;;;;;485042;246;2252;-74
2022/09/01 04:39:47;;;;;;;;;;;21.20;53.00;;;;;;484797;245;1431;-74
2022/09/01 04:41:49;;;;;;;;;;;21.30;52.90;;;;;;484642;246;1447;-74
2022/09/01 04:43:47;;;;;;;;;;;21.40;52.90;;;;;;485011;245;1448;-74
2022/09/01 04:45:50;;;;;;;;;;;21.30;52.70;;;;;;485010;246;1248;-74
2022/09/01 04:47:51;;;;;;;;;;;21.40;52.80;;;;;;484871;246;1290;-74
2022/09/01 04:49:52;;;;;;;;;;;21.20;52.80;;;;;;484923;246;1112;-74
2022/09/01 04:51:54;;;;;;;;;;;21.20;53.00;;;;;;484925;246;1178;-74
2022/09/01 04:53:56;;;;;;;;;;;21.20;53.10;;;;;;484900;246;1168;-74
2022/09/01 04:55:56;;;;;;;;;;;21.30;53.10;;;;;;484852;246;1428;-75
2022/09/01 04:57:58;;;;;;;;;;;21.30;53.00;;;;;;484914;246;2192;-75
2022/09/01 04:59:59;;;;;;;;;;;21.40;52.60;;;;;;484881;245;1140;-74
2022/09/01 05:02:00;;;;;;;;;;;21.30;52.60;;;;;;484964;246;1121;-74
2022/09/01 05:04:01;;;;;;;;;;;21.10;53.10;;;;;;484846;246;1174;-74
2022/09/01 05:06:03;;;;;;;;;;;21.20;53.10;;;;;;484826;246;1219;-74
2022/09/01 05:08:04;;;;;;;;;;;21.20;52.90;;;;;;484887;245;1175;-74
2022/09/01 05:10:06;;;;;;;;;;;21.40;52.80;;;;;;484866;246;1186;-74
2022/09/01 05:12:14;;;;;;;;;;;21.40;52.70;;;;;;484901;246;1219;-74
2022/09/01 05:14:17;;;;;;;;;;;21.50;52.50;;;;;;484830;246;1495;-74
2022/09/01 05:16:18;;;;;;;;;;;21.50;52.40;;;;;;484734;245;1607;-74
2022/09/01 05:18:22;;;;;;;;;;;21.50;52.30;;;;;;484726;246;2121;-74
2022/09/01 05:20:19;;;;;;;;;;;21.50;52.50;;;;;;484571;245;1430;-74
2022/09/01 05:22:21;;;;;;;;;;;21.40;52.50;;;;;;484951;245;1218;-74
2022/09/01 05:24:24;;;;;;;;;;;21.50;52.50;;;;;;484876;246;1489;-74
2022/09/01 05:26:23;;;;;;;;;;;21.50;52.50;;;;;;484720;246;1436;-74
2022/09/01 05:28:25;;;;;;;;;;;21.40;52.50;;;;;;484788;246;1098;-74
2022/09/01 05:30:27;;;;;;;;;;;21.40;52.50;;;;;;484880;246;1398;-74
2022/09/01 05:32:27;;;;;;;;;;;21.30;52.60;;;;;;484687;246;1490;-74
2022/09/01 05:34:30;;;;;;;;;;;21.20;52.90;;;;;;484797;246;1071;-75
2022/09/01 05:36:32;;;;;;;;;;;21.30;53.00;;;;;;484524;245;1497;-74
2022/09/01 05:38:32;;;;;;;;;;;21.30;53.00;;;;;;484793;246;2137;-74
2022/09/01 05:40:33;;;;;;;;;;;21.40;52.90;;;;;;484868;246;1422;-74
2022/09/01 05:42:34;;;;;;;;;;;21.40;52.80;;;;;;484658;246;1103;-75
2022/09/01 05:44:35;;;;;;;;;;;21.50;52.50;;;;;;484435;246;1143;-74
2022/09/01 05:46:38;;;;;;;;;;;21.40;52.50;;;;;;484613;245;1046;-74
2022/09/01 05:48:39;;;;;;;;;;;21.40;52.70;;;;;;484700;245;1404;-74
2022/09/01 05:50:41;;;;;;;;;;;21.30;52.80;;;;;;484581;246;1103;-74
2022/09/01 05:52:46;;;;;;;;;;;21.40;52.70;;;;;;484786;246;1482;-74
2022/09/01 05:54:44;;;;;;;;;;;21.40;52.60;;;;;;484528;245;1287;-74
2022/09/01 05:56:46;;;;;;;;;;;21.50;52.50;;;;;;484653;246;2160;-74
2022/09/01 05:58:47;;;;;;;;;;;21.50;52.40;;;;;;484633;246;1231;-74
2022/09/01 06:00:48;;;;;;;;;;;21.50;52.50;;;;;;484670;246;1153;-74
2022/09/01 06:02:50;;;;;;;;;;;21.50;52.50;;;;;;484679;246;1216;-74
2022/09/01 06:04:53;;;;;;;;;;;21.50;52.50;;;;;;484540;246;1132;-74
2022/09/01 06:06:53;;;;;;;;;;;21.40;52.60;;;;;;484509;246;1409;-74
2022/09/01 06:08:57;;;;;;;;;;;21.50;52.50;;;;;;484768;246;1489;-74
2022/09/01 06:10:55;;;;;;;;;;;21.40;52.70;;;;;;484243;246;1477;-74
2022/09/01 06:12:57;;;;;;;;;;;21.50;52.40;;;;;;484596;246;1174;-74
2022/09/01 06:14:57;;;;;;;;;;;21.50;52.40;;;;;;484649;246;1285;-74
2022/09/01 06:16:59;;;;;;;;;;;21.60;52.30;;;;;;484670;246;2160;-74
2022/09/01 06:19:00;;;;;;;;;;;21.60;52.40;;;;;;484616;245;1349;-74
2022/09/01 06:21:02;;;;;;;;;;;21.60;52.40;;;;;;484651;246;1092;-74
2022/09/01 06:23:03;;;;;;;;;;;21.50;52.50;;;;;;484473;246;1429;-74
2022/09/01 06:25:05;;;;;;;;;;;21.50;52.50;;;;;;484794;246;1137;-74
2022/09/01 06:27:08;;;;;;;;;;;21.60;52.30;;;;;;484638;246;1440;-74
2022/09/01 06:29:08;;;;;;;;;;;21.60;52.20;;;;;;484572;246;1391;-74
2022/09/01 06:31:10;;;;;;;;;;;21.60;52.40;;;;;;484692;246;1153;-74
2022/09/01 06:33:12;;;;;;;;;;;21.60;52.40;;;;;;484576;246;1453;-74
2022/09/01 06:35:12;;;;;;;;;;;21.60;52.40;;;;;;484608;245;1537;-74
2022/09/01 06:37:14;;;;;;;;;;;21.60;52.50;;;;;;484654;246;2175;-74
2022/09/01 06:39:18;;;;;;;;;;;21.60;52.30;;;;;;484741;246;1073;-74
2022/09/01 06:41:18;;;;;;;;;;;21.60;52.30;;;;;;484490;246;1401;-74
2022/09/01 06:43:18;;;;;;;;;;;21.50;52.40;;;;;;484672;246;1249;-74
2022/09/01 06:45:19;;;;;;;;;;;21.50;52.60;;;;;;484761;246;1066;-73
2022/09/01 06:47:21;;;;;;;;;;;21.50;52.60;;;;;;484516;246;1111;-74
2022/09/01 06:49:31;;;;;;;;;;;21.50;52.60;;;;;;484633;246;1085;-74
2022/09/01 06:51:25;;;;;;;;;;;21.40;52.60;;;;;;483848;246;1314;-74
2022/09/01 06:53:25;;;;;;;;;;;21.40;52.80;;;;;;484619;246;1495;-74
2022/09/01 06:55:30;;;;;;;;;;;21.50;52.90;;;;;;484710;246;1080;-74
2022/09/01 06:57:28;;;;;;;;;;;21.60;52.40;;;;;;484503;245;2156;-74
2022/09/01 06:59:31;;;;;;;;;;;21.60;52.30;;;;;;484656;246;1204;-74
2022/09/01 07:01:31;;;;;;;;;;;21.60;52.40;;;;;;484464;246;1960;-74
2022/09/01 07:03:32;;;;;;;;;;;21.50;52.50;;;;;;484571;246;1078;-74
2022/09/01 07:05:36;;;;;;;;;;;21.40;52.80;;;;;;484603;246;1185;-74
2022/09/01 07:07:36;;;;;;;;;;;21.40;52.80;;;;;;484498;246;1425;-74
2022/09/01 07:09:37;;;;;;;;;;;21.40;52.80;;;;;;484579;246;1458;-74
2022/09/01 07:11:38;;;;;;;;;;;21.40;52.80;;;;;;484560;246;1134;-74
2022/09/01 07:13:39;;;;;;;;;;;21.40;52.70;;;;;;484564;246;1149;-74
2022/09/01 07:15:40;;;;;;;;;;;21.40;52.80;;;;;;484629;246;1493;-74
2022/09/01 07:17:42;;;;;;;;;;;21.40;52.90;;;;;;484680;246;2171;-74
2022/09/01 07:19:44;;;;;;;;;;;21.40;52.90;;;;;;484571;246;1420;-74
2022/09/01 07:21:44;;;;;;;;;;;21.30;53.10;;;;;;484655;246;1456;-74
2022/09/01 07:23:46;;;;;;;;;;;21.30;53.20;;;;;;484497;246;1167;-74
2022/09/01 07:25:47;;;;;;;;;;;21.20;53.20;;;;;;484475;246;1121;-74
2022/09/01 07:27:49;;;;;;;;;;;21.30;53.20;;;;;;484642;246;1239;-74
2022/09/01 07:29:50;;;;;;;;;;;21.20;53.20;;;;;;484543;246;1117;-74
2022/09/01 07:31:54;;;;;;;;;;;21.20;53.30;;;;;;484668;246;1208;-74
2022/09/01 07:33:53;;;;;;;;;;;21.10;53.40;;;;;;484490;246;1551;-74
2022/09/01 07:35:54;;;;;;;;;;;21.20;53.50;;;;;;484644;246;1468;-74
2022/09/01 07:37:55;;;;;;;;;;;21.20;53.30;;;;;;484437;246;2175;-74
2022/09/01 07:39:58;;;;;;;;;;;21.20;53.20;;;;;;484564;245;1367;-74
2022/09/01 07:42:00;;;;;;;;;;;21.20;53.30;;;;;;484537;246;1093;-74
2022/09/01 07:44:01;;;;;;;;;;;21.20;53.40;;;;;;484659;246;1865;-74
2022/09/01 07:46:04;;;;;;;;;;;21.20;53.40;;;;;;483821;246;1339;-74
2022/09/01 07:48:05;;;;;;;;;;;21.20;53.40;;;;;;484126;246;1262;-74
2022/09/01 07:50:07;;;;;;;;;;;21.30;53.30;;;;;;484416;246;1506;-74
2022/09/01 07:52:06;;;;;;;;;;;21.30;53.10;;;;;;484383;245;1469;-74
2022/09/01 07:54:09;;;;;;;;;;;21.40;53.00;;;;;;484547;245;1050;-74
2022/09/01 07:56:09;;;;;;;;;;;21.30;53.10;;;;;;484557;246;1410;-74
2022/09/01 07:58:10;;;;;;;;;;;21.30;53.20;;;;;;484642;246;2191;-74
2022/09/01 08:00:12;;;;;;;;;;;21.30;53.10;;;;;;484539;245;1212;-74
2022/09/01 08:02:17;;;;;;;;;;;21.30;53.20;;;;;;484592;246;1191;-74
2022/09/01 08:04:17;;;;;;;;;;;21.30;53.10;;;;;;484339;246;1430;-74
2022/09/01 08:06:19;;;;;;;;;;;21.20;53.10;;;;;;484454;246;1280;-74
2022/09/01 08:08:18;;;;;;;;;;;21.20;53.30;;;;;;484418;246;1650;-74
2022/09/01 08:10:19;;;;;;;;;;;21.10;53.30;;;;;;484571;245;1212;-74
2022/09/01 08:12:21;;;;;;;;;;;21.20;53.10;;;;;;484601;245;1147;-74
2022/09/01 08:14:22;;;;;;;;;;;21.20;53.00;;;;;;484522;246;1098;-74
2022/09/01 08:16:23;;;;;;;;;;;21.20;53.10;;;;;;484415;246;1243;-74
2022/09/01 08:18:25;;;;;;;;;;;21.20;53.00;;;;;;484390;245;2160;-74
2022/09/01 08:20:26;;;;;;;;;;;21.10;53.20;;;;;;484473;246;1219;-74
2022/09/01 08:22:27;;;;;;;;;;;21.10;53.20;;;;;;484559;244;1149;-74
2022/09/01 08:24:28;;;;;;;;;;;21.20;53.10;;;;;;484617;246;1074;-74
2022/09/01 08:26:30;;;;;;;;;;;21.20;52.90;;;;;;484323;246;1144;-74
2022/09/01 08:28:32;;;;;;;;;;;21.10;53.00;;;;;;484460;246;1110;-74
2022/09/01 08:30:33;;;;;;;;;;;21.20;53.00;;;;;;484582;246;1389;-74
2022/09/01 08:32:34;;;;;;;;;;;21.10;53.10;;;;;;484625;246;1077;-74
2022/09/01 08:34:36;;;;;;;;;;;21.20;53.00;;;;;;484596;246;1067;-74
2022/09/01 08:36:37;;;;;;;;;;;21.20;53.00;;;;;;484646;246;1111;-74
2022/09/01 08:38:38;;;;;;;;;;;21.10;53.10;;;;;;484572;246;2175;-74
2022/09/01 08:40:40;;;;;;;;;;;21.10;53.30;;;;;;484376;246;1028;-74
2022/09/01 08:42:41;;;;;;;;;;;21.10;53.30;;;;;;484531;246;1190;-74
2022/09/01 08:44:44;;;;;;;;;;;21.20;53.20;;;;;;484638;246;1143;-74
2022/09/01 08:46:44;;;;;;;;;;;21.10;53.40;;;;;;484643;246;1404;-75
2022/09/01 08:48:45;;;;;;;;;;;21.50;53.10;;;;;;484612;246;1117;-75
2022/09/01 08:50:46;;;;;;;;;;;21.90;51.80;;;;;;484575;246;1129;-74
2022/09/01 08:52:48;;;;;;;;;;;21.90;51.30;;;;;;484579;246;1181;-74
2022/09/01 08:54:49;;;;;;;;;;;21.50;52.20;;;;;;484677;246;1171;-74
2022/09/01 08:56:51;;;;;;;;;;;21.20;53.10;;;;;;484485;246;1286;-74
2022/09/01 08:58:52;;;;;;;;;;;21.20;53.30;;;;;;484594;246;2199;-74
2022/09/01 09:00:53;;;;;;;;;;;21.10;53.60;;;;;;484580;246;1054;-74
2022/09/01 09:02:54;;;;;;;;;;;21.00;53.80;;;;;;484661;246;1069;-74
2022/09/01 09:04:56;;;;;;;;;;;21.10;53.80;;;;;;484687;246;1082;-74
2022/09/01 09:06:57;;;;;;;;;;;21.10;53.70;;;;;;484515;246;1184;-74
2022/09/01 09:08:58;;;;;;;;;;;21.10;53.70;;;;;;484620;245;1150;-74
2022/09/01 09:11:00;;;;;;;;;;;21.10;53.80;;;;;;484662;246;1090;-74
2022/09/01 09:13:01;;;;;;;;;;;21.00;53.80;;;;;;484331;246;1156;-74
2022/09/01 09:15:02;;;;;;;;;;;21.10;53.90;;;;;;484714;246;1136;-74
2022/09/01 09:17:04;;;;;;;;;;;21.10;53.70;;;;;;484663;246;1087;-74
2022/09/01 09:19:05;;;;;;;;;;;21.10;53.70;;;;;;484750;246;2199;-74
2022/09/01 09:21:06;;;;;;;;;;;21.10;53.60;;;;;;484669;246;1178;-74
2022/09/01 09:23:08;;;;;;;;;;;21.20;53.60;;;;;;484730;246;1145;-74
2022/09/01 09:25:09;;;;;;;;;;;21.10;53.70;;;;;;484738;246;1223;-74
2022/09/01 09:27:10;;;;;;;;;;;21.10;53.60;;;;;;484740;246;1218;-74
2022/09/01 09:29:12;;;;;;;;;;;21.10;53.60;;;;;;484737;245;1140;-74
2022/09/01 09:31:13;;;;;;;;;;;21.00;53.70;;;;;;484667;246;1097;-74
2022/09/01 09:33:14;;;;;;;;;;;21.00;53.70;;;;;;484611;246;1096;-74
2022/09/01 09:35:16;;;;;;;;;;;21.20;53.40;;;;;;484598;246;1118;-74
2022/09/01 09:37:17;;;;;;;;;;;21.10;53.50;;;;;;484729;246;1239;-74
2022/09/01 09:39:18;;;;;;;;;;;21.00;53.60;;;;;;484646;246;2179;-74
2022/09/01 09:41:20;;;;;;;;;;;21.00;53.60;;;;;;484616;245;1109;-74
2022/09/01 09:43:23;;;;;;;;;;;20.90;53.90;;;;;;484602;246;1342;-74
2022/09/01 09:45:22;;;;;;;;;;;21.00;53.80;;;;;;484602;246;1429;-74
2022/09/01 09:47:23;;;;;;;;;;;20.90;53.90;;;;;;484733;246;1127;-74
2022/09/01 09:49:25;;;;;;;;;;;20.90;54.00;;;;;;484636;246;1025;-74
2022/09/01 09:51:26;;;;;;;;;;;20.90;53.90;;;;;;484593;246;1141;-74
2022/09/01 09:53:28;;;;;;;;;;;20.90;54.00;;;;;;484700;246;1093;-74
2022/09/01 09:55:29;;;;;;;;;;;20.90;54.00;;;;;;484644;246;1070;-74
2022/09/01 09:57:30;;;;;;;;;;;21.00;54.00;;;;;;484451;246;1216;-74
2022/09/01 09:59:32;;;;;;;;;;;21.00;53.90;;;;;;484635;246;2156;-74
2022/09/01 10:01:33;;;;;;;;;;;21.00;53.80;;;;;;484738;245;1156;-74
2022/09/01 10:03:35;;;;;;;;;;;21.00;53.80;;;;;;484562;245;1153;-74
2022/09/01 10:05:36;;;;;;;;;;;21.00;53.80;;;;;;484625;246;1190;-74
2022/09/01 10:07:37;;;;;;;;;;;20.90;53.80;;;;;;484602;246;1176;-74
2022/09/01 10:09:39;;;;;;;;;;;21.00;53.90;;;;;;484633;246;1171;-74
2022/09/01 10:11:40;;;;;;;;;;;21.00;53.90;;;;;;484693;246;1179;-74
2022/09/01 10:13:41;;;;;;;;;;;21.00;53.90;;;;;;484595;246;1188;-74
2022/09/01 10:15:43;;;;;;;;;;;21.00;54.00;;;;;;484739;246;1138;-74
2022/09/01 10:17:44;;;;;;;;;;;21.00;53.80;;;;;;484677;246;1183;-74
2022/09/01 10:19:45;;;;;;;;;;;21.10;53.80;;;;;;484680;246;2183;-74
2022/09/01 10:21:47;;;;;;;;;;;21.00;53.80;;;;;;484616;246;1088;-74
2022/09/01 10:23:48;;;;;;;;;;;21.00;53.70;;;;;;484626;246;1161;-74
2022/09/01 10:25:49;;;;;;;;;;;21.00;53.80;;;;;;484751;246;1073;-74
2022/09/01 10:27:51;;;;;;;;;;;20.90;53.90;;;;;;484730;246;1114;-74
2022/09/01 10:29:52;;;;;;;;;;;20.90;54.00;;;;;;484722;246;1672;-74
2022/09/01 10:31:53;;;;;;;;;;;21.00;54.00;;;;;;484470;246;1423;-74
2022/09/01 10:33:55;;;;;;;;;;;21.00;53.90;;;;;;484667;245;1298;-74
2022/09/01 10:35:56;;;;;;;;;;;20.90;53.90;;;;;;484590;245;1161;-74
2022/09/01 10:37:57;;;;;;;;;;;21.00;53.70;;;;;;484508;246;1183;-73
2022/09/01 10:39:59;;;;;;;;;;;21.00;53.70;;;;;;484703;246;2187;-74
2022/09/01 10:42:06;;;;;;;;;;;20.90;53.90;;;;;;484532;246;1145;-74
2022/09/01 10:44:01;;;;;;;;;;;20.90;54.00;;;;;;484439;245;1482;-74
2022/09/01 10:46:03;;;;;;;;;;;20.90;53.80;;;;;;484582;246;1156;-74
2022/09/01 10:48:04;;;;;;;;;;;21.00;53.80;;;;;;484704;246;1222;-74
2022/09/01 10:50:05;;;;;;;;;;;21.00;53.70;;;;;;484722;246;1058;-74
2022/09/01 10:52:07;;;;;;;;;;;21.00;53.70;;;;;;484663;246;1072;-74
2022/09/01 10:54:08;;;;;;;;;;;21.10;53.70;;;;;;484564;246;1118;-74
2022/09/01 10:56:09;;;;;;;;;;;21.10;53.40;;;;;;484721;246;1150;-74
2022/09/01 10:58:11;;;;;;;;;;;21.10;53.40;;;;;;484486;246;1101;-74
2022/09/01 11:00:12;;;;;;;;;;;21.10;53.40;;;;;;484406;245;2399;-74
2022/09/01 11:02:14;;;;;;;;;;;21.20;53.40;;;;;;484589;246;1177;-74
2022/09/01 11:04:15;;;;;;;;;;;21.00;53.50;;;;;;484586;246;1493;-74
2022/09/01 11:06:16;;;;;;;;;;;21.10;53.60;;;;;;484355;246;1162;-74
2022/09/01 11:08:17;;;;;;;;;;;21.00;53.60;;;;;;484381;246;1096;-74
2022/09/01 11:10:19;;;;;;;;;;;21.10;53.50;;;;;;484397;246;1121;-74
2022/09/01 11:12:20;;;;;;;;;;;21.00;53.50;;;;;;484453;246;1205;-74
2022/09/01 11:14:21;;;;;;;;;;;21.00;53.60;;;;;;484435;246;1210;-74
2022/09/01 11:16:22;;;;;;;;;;;21.00;53.70;;;;;;484439;246;1162;-74
2022/09/01 11:18:25;;;;;;;;;;;21.00;53.60;;;;;;484424;246;1064;-74
2022/09/01 11:20:26;;;;;;;;;;;21.00;53.70;;;;;;484235;246;2182;-74
2022/09/01 11:22:27;;;;;;;;;;;21.00;53.70;;;;;;484424;246;1085;-74
2022/09/01 11:24:29;;;;;;;;;;;21.00;53.70;;;;;;484358;246;1136;-74
2022/09/01 11:26:31;;;;;;;;;;;21.00;53.70;;;;;;484380;246;1147;-74
2022/09/01 11:28:31;;;;;;;;;;;21.00;53.60;;;;;;484369;246;1509;-74
2022/09/01 11:30:33;;;;;;;;;;;21.00;53.40;;;;;;484470;246;1154;-74
2022/09/01 11:32:34;;;;;;;;;;;21.00;53.30;;;;;;484461;246;1133;-74
2022/09/01 11:34:35;;;;;;;;;;;21.00;53.40;;;;;;484434;245;1040;-74
2022/09/01 11:36:37;;;;;;;;;;;21.00;53.30;;;;;;484519;246;1063;-74
2022/09/01 11:38:38;;;;;;;;;;;20.90;53.40;;;;;;484545;246;1067;-74
2022/09/01 11:40:40;;;;;;;;;;;20.90;53.60;;;;;;484469;246;2194;-74
2022/09/01 11:42:42;;;;;;;;;;;20.90;53.70;;;;;;484463;246;1040;-74
2022/09/01 11:44:43;;;;;;;;;;;20.90;53.50;;;;;;484616;246;1209;-74
2022/09/01 11:46:44;;;;;;;;;;;20.90;53.40;;;;;;484483;246;1164;-74
2022/09/01 11:48:45;;;;;;;;;;;20.90;53.50;;;;;;484455;245;1149;-74
2022/09/01 11:50:47;;;;;;;;;;;20.90;53.50;;;;;;484554;246;1149;-74
2022/09/01 11:52:48;;;;;;;;;;;20.90;53.60;;;;;;484610;246;1452;-74
2022/09/01 11:54:49;;;;;;;;;;;20.90;53.70;;;;;;484494;246;1162;-74
2022/09/01 11:56:51;;;;;;;;;;;20.90;53.50;;;;;;484621;246;1045;-74
2022/09/01 11:58:52;;;;;;;;;;;20.80;53.60;;;;;;484488;246;2160;-74
2022/09/01 12:00:53;;;;;;;;;;;20.90;53.60;;;;;;484558;245;1137;-74
2022/09/01 12:02:55;;;;;;;;;;;20.90;53.50;;;;;;484546;246;1192;-74